createdAt,value
2018-07-30T00:01:26.385Z,1008.37
2018-07-30T00:02:26.383Z,1008.36
2018-07-30T00:04:19.319Z,1008.34
2018-07-30T00:05:19.345Z,1008.39
2018-07-30T00:07:12.286Z,1008.38
2018-07-30T00:08:12.286Z,1008.36
2018-07-30T00:10:05.221Z,1008.37
2018-07-30T00:11:05.237Z,1008.32
2018-07-30T00:12:58.191Z,1008.33
2018-07-30T00:13:58.195Z,1008.26
2018-07-30T00:15:51.150Z,1008.27
2018-07-30T00:16:51.143Z,1008.30
2018-07-30T00:18:44.081Z,1008.33
2018-07-30T00:19:44.097Z,1008.35
2018-07-30T00:21:37.054Z,1008.32
2018-07-30T00:22:37.052Z,1008.37
2018-07-30T00:24:29.988Z,1008.32
2018-07-30T00:25:30.001Z,1008.32
2018-07-30T00:27:22.954Z,1008.36
2018-07-30T00:28:22.951Z,1008.34
2018-07-30T00:30:15.890Z,1008.34
2018-07-30T00:31:15.942Z,1008.38
2018-07-30T00:33:08.862Z,1008.35
2018-07-30T00:34:08.854Z,1008.39
2018-07-30T00:36:01.810Z,1008.41
2018-07-30T00:37:01.811Z,1008.41
2018-07-30T00:38:54.745Z,1008.42
2018-07-30T00:39:54.759Z,1008.43
2018-07-30T00:41:47.713Z,1008.37
2018-07-30T00:42:47.709Z,1008.43
2018-07-30T00:44:40.641Z,1008.43
2018-07-30T00:45:40.662Z,1008.53
2018-07-30T00:47:33.619Z,1008.52
2018-07-30T00:48:33.615Z,1008.52
2018-07-30T00:50:26.554Z,1008.52
2018-07-30T00:51:26.573Z,1008.52
2018-07-30T00:53:19.524Z,1008.49
2018-07-30T00:54:19.523Z,1008.47
2018-07-30T00:56:12.476Z,1008.49
2018-07-30T00:57:12.476Z,1008.49
2018-07-30T00:59:05.900Z,1008.48
2018-07-30T01:00:05.924Z,1008.51
2018-07-30T01:01:58.877Z,1008.51
2018-07-30T01:02:58.874Z,1008.52
2018-07-30T01:04:51.805Z,1008.51
2018-07-30T01:05:51.823Z,1008.52
2018-07-30T01:07:44.818Z,1008.57
2018-07-30T01:08:44.775Z,1008.55
2018-07-30T01:10:37.710Z,1008.56
2018-07-30T01:11:37.727Z,1008.55
2018-07-30T01:13:30.690Z,1008.58
2018-07-30T01:14:30.710Z,1008.58
2018-07-30T01:16:23.641Z,1008.57
2018-07-30T01:17:23.638Z,1008.57
2018-07-30T01:19:16.568Z,1008.60
2018-07-30T01:20:16.585Z,1008.54
2018-07-30T01:22:09.541Z,1008.58
2018-07-30T01:23:09.539Z,1008.54
2018-07-30T01:25:02.472Z,1008.63
2018-07-30T01:26:02.485Z,1008.61
2018-07-30T01:27:55.438Z,1008.60
2018-07-30T01:28:55.436Z,1008.65
2018-07-30T01:30:48.372Z,1008.61
2018-07-30T01:31:48.390Z,1008.64
2018-07-30T01:33:41.342Z,1008.66
2018-07-30T01:34:41.344Z,1008.65
2018-07-30T01:36:34.291Z,1008.59
2018-07-30T01:37:34.291Z,1008.59
2018-07-30T01:39:27.225Z,1008.57
2018-07-30T01:40:27.244Z,1008.62
2018-07-30T01:42:20.195Z,1008.55
2018-07-30T01:43:20.190Z,1008.56
2018-07-30T01:45:13.126Z,1008.56
2018-07-30T01:46:13.143Z,1008.58
2018-07-30T01:48:06.098Z,1008.58
2018-07-30T01:49:06.097Z,1008.54
2018-07-30T01:50:59.026Z,1008.55
2018-07-30T01:51:59.043Z,1008.48
2018-07-30T01:53:52.001Z,1008.53
2018-07-30T02:24:19.249Z,1008.45
2018-07-30T02:25:19.237Z,1008.52
2018-07-30T02:27:12.177Z,1008.50
2018-07-30T02:28:12.172Z,1008.49
2018-07-30T02:30:05.099Z,1008.48
2018-07-30T02:31:05.113Z,1008.49
2018-07-30T02:32:58.064Z,1008.48
2018-07-30T02:33:58.059Z,1008.49
2018-07-30T02:35:50.993Z,1008.52
2018-07-30T02:36:51.023Z,1008.52
2018-07-30T02:38:43.954Z,1008.59
2018-07-30T02:39:43.949Z,1008.54
2018-07-30T02:41:36.881Z,1008.65
2018-07-30T02:42:36.893Z,1008.62
2018-07-30T02:44:29.853Z,1008.57
2018-07-30T02:45:29.853Z,1008.67
2018-07-30T02:47:22.796Z,1008.65
2018-07-30T02:48:22.794Z,1008.70
2018-07-30T02:50:15.722Z,1008.65
2018-07-30T02:51:15.738Z,1008.70
2018-07-30T02:53:08.691Z,1008.72
2018-07-30T02:54:08.685Z,1008.73
2018-07-30T02:56:01.620Z,1008.68
2018-07-30T02:57:01.639Z,1008.68
2018-07-30T02:58:54.593Z,1008.71
2018-07-30T02:59:54.589Z,1008.74
2018-07-30T03:01:47.516Z,1008.74
2018-07-30T03:02:47.532Z,1008.78
2018-07-30T03:04:40.485Z,1008.76
2018-07-30T03:05:40.486Z,1008.80
2018-07-30T03:07:33.436Z,1008.74
2018-07-30T03:08:33.436Z,1008.76
2018-07-30T03:10:26.363Z,1008.77
2018-07-30T03:11:26.381Z,1008.80
2018-07-30T03:13:19.335Z,1008.83
2018-07-30T03:14:19.330Z,1008.82
2018-07-30T03:16:12.259Z,1008.80
2018-07-30T03:17:12.276Z,1008.80
2018-07-30T03:19:05.230Z,1008.86
2018-07-30T03:20:05.230Z,1008.81
2018-07-30T03:21:58.165Z,1008.85
2018-07-30T03:22:58.184Z,1008.84
2018-07-30T03:24:51.132Z,1008.82
2018-07-30T03:25:51.132Z,1008.78
2018-07-30T03:27:44.081Z,1008.79
2018-07-30T03:28:44.113Z,1008.81
2018-07-30T03:30:37.012Z,1008.85
2018-07-30T03:31:37.025Z,1008.85
2018-07-30T03:33:29.984Z,1008.84
2018-07-30T03:34:29.977Z,1008.84
2018-07-30T03:36:22.909Z,1008.87
2018-07-30T03:37:22.927Z,1008.88
2018-07-30T03:39:15.881Z,1008.86
2018-07-30T03:40:15.880Z,1008.90
2018-07-30T03:42:08.840Z,1008.89
2018-07-30T03:43:08.825Z,1008.90
2018-07-30T03:45:01.836Z,1008.85
2018-07-30T03:46:01.773Z,1008.87
2018-07-30T03:47:54.770Z,1008.81
2018-07-30T03:48:54.723Z,1008.78
2018-07-30T03:50:47.673Z,1008.86
2018-07-30T03:51:47.685Z,1008.84
2018-07-30T03:53:40.635Z,1008.87
2018-07-30T03:54:40.640Z,1008.87
2018-07-30T03:56:33.564Z,1008.87
2018-07-30T03:57:33.578Z,1008.89
2018-07-30T03:59:26.536Z,1008.86
2018-07-30T04:00:26.591Z,1008.89
2018-07-30T04:02:19.462Z,1008.85
2018-07-30T04:03:19.479Z,1008.86
2018-07-30T04:05:12.428Z,1008.88
2018-07-30T04:06:12.499Z,1008.87
2018-07-30T04:08:05.384Z,1008.85
2018-07-30T04:09:05.378Z,1008.87
2018-07-30T04:10:58.325Z,1008.89
2018-07-30T04:11:58.339Z,1008.92
2018-07-30T04:13:51.294Z,1008.87
2018-07-30T04:14:51.289Z,1008.87
2018-07-30T04:16:44.222Z,1008.93
2018-07-30T04:17:44.238Z,1008.94
2018-07-30T04:19:37.190Z,1008.92
2018-07-30T04:20:37.191Z,1008.96
2018-07-30T04:22:30.119Z,1008.97
2018-07-30T04:23:30.137Z,1009.01
2018-07-30T04:25:23.093Z,1008.99
2018-07-30T04:26:23.084Z,1009.02
2018-07-30T04:28:16.040Z,1009.07
2018-07-30T04:29:16.038Z,1009.03
2018-07-30T04:31:08.971Z,1009.06
2018-07-30T04:32:08.989Z,1009.04
2018-07-30T04:34:01.943Z,1009.07
2018-07-30T04:35:01.940Z,1009.03
2018-07-30T04:36:54.904Z,1009.07
2018-07-30T04:37:54.919Z,1009.05
2018-07-30T04:39:47.874Z,1009.05
2018-07-30T04:40:47.872Z,1009.07
2018-07-30T04:42:40.807Z,1009.10
2018-07-30T04:43:40.878Z,1009.14
2018-07-30T04:45:33.784Z,1009.18
2018-07-30T04:46:33.781Z,1009.15
2018-07-30T04:48:26.739Z,1009.15
2018-07-30T04:49:26.731Z,1009.15
2018-07-30T04:51:19.659Z,1009.11
2018-07-30T04:52:19.676Z,1009.10
2018-07-30T04:54:12.629Z,1009.11
2018-07-30T04:55:12.634Z,1009.08
2018-07-30T04:57:05.636Z,1009.06
2018-07-30T04:58:05.575Z,1009.09
2018-07-30T04:59:58.531Z,1009.10
2018-07-30T05:00:58.524Z,1009.09
2018-07-30T05:02:51.465Z,1009.07
2018-07-30T05:03:51.486Z,1009.04
2018-07-30T05:05:44.433Z,1009.10
2018-07-30T05:06:44.436Z,1009.15
2018-07-30T05:08:37.389Z,1009.14
2018-07-30T05:09:37.506Z,1009.17
2018-07-30T05:11:30.317Z,1009.23
2018-07-30T05:12:30.333Z,1009.22
2018-07-30T05:14:23.291Z,1009.27
2018-07-30T05:15:23.284Z,1009.22
2018-07-30T05:17:16.220Z,1009.27
2018-07-30T05:18:16.236Z,1009.22
2018-07-30T05:20:09.192Z,1009.28
2018-07-30T05:21:09.191Z,1009.27
2018-07-30T05:23:02.127Z,1009.25
2018-07-30T05:24:02.143Z,1009.26
2018-07-30T05:25:55.100Z,1009.28
2018-07-30T05:26:55.094Z,1009.26
2018-07-30T05:28:48.047Z,1009.26
2018-07-30T05:29:48.050Z,1009.22
2018-07-30T05:31:41.026Z,1009.26
2018-07-30T05:32:40.999Z,1009.28
2018-07-30T05:34:33.952Z,1009.24
2018-07-30T05:35:33.955Z,1009.27
2018-07-30T05:37:26.886Z,1009.21
2018-07-30T05:38:26.903Z,1009.29
2018-07-30T05:40:19.858Z,1009.29
2018-07-30T05:41:19.858Z,1009.32
2018-07-30T05:43:12.797Z,1009.29
2018-07-30T05:44:12.815Z,1009.30
2018-07-30T05:46:05.764Z,1009.33
2018-07-30T05:47:05.767Z,1009.37
2018-07-30T05:48:59.217Z,1009.39
2018-07-30T05:49:59.242Z,1009.38
2018-07-30T05:51:52.173Z,1009.38
2018-07-30T05:52:52.183Z,1009.37
2018-07-30T05:54:45.134Z,1009.37
2018-07-30T05:55:45.131Z,1009.36
2018-07-30T05:57:38.065Z,1009.32
2018-07-30T05:58:38.089Z,1009.35
2018-07-30T06:00:31.037Z,1009.36
2018-07-30T06:01:31.035Z,1009.39
2018-07-30T06:03:23.970Z,1009.35
2018-07-30T06:04:23.989Z,1009.42
2018-07-30T06:06:16.952Z,1009.39
2018-07-30T06:07:16.950Z,1009.40
2018-07-30T06:09:09.917Z,1009.39
2018-07-30T06:10:09.902Z,1009.45
2018-07-30T06:12:02.837Z,1009.46
2018-07-30T06:13:02.860Z,1009.48
2018-07-30T06:14:55.812Z,1009.53
2018-07-30T06:15:55.813Z,1009.55
2018-07-30T06:17:48.745Z,1009.52
2018-07-30T06:18:48.764Z,1009.55
2018-07-30T06:20:41.718Z,1009.63
2018-07-30T06:21:41.715Z,1009.63
2018-07-30T06:23:34.658Z,1009.65
2018-07-30T06:24:34.674Z,1009.66
2018-07-30T06:26:27.697Z,1009.65
2018-07-30T06:27:27.701Z,1009.64
2018-07-30T06:29:20.582Z,1009.68
2018-07-30T06:30:20.584Z,1009.66
2018-07-30T06:32:13.537Z,1009.67
2018-07-30T06:33:13.538Z,1009.65
2018-07-30T06:35:06.529Z,1009.67
2018-07-30T06:36:06.527Z,1009.69
2018-07-30T06:37:59.466Z,1009.74
2018-07-30T06:38:59.487Z,1009.71
2018-07-30T06:40:52.446Z,1009.74
2018-07-30T06:41:52.445Z,1009.90
2018-07-30T06:43:45.381Z,1009.76
2018-07-30T06:44:45.404Z,1009.73
2018-07-30T06:46:38.355Z,1009.68
2018-07-30T06:47:38.362Z,1009.72
2018-07-30T06:49:31.314Z,1009.76
2018-07-30T06:50:31.316Z,1009.80
2018-07-30T06:52:24.275Z,1009.84
2018-07-30T06:53:24.488Z,1009.82
2018-07-30T06:55:17.235Z,1009.86
2018-07-30T06:56:17.235Z,1009.87
2018-07-30T06:58:10.186Z,1009.87
2018-07-30T06:59:10.196Z,1009.86
2018-07-30T07:01:03.161Z,1009.74
2018-07-30T07:02:03.207Z,1009.91
2018-07-30T07:03:56.104Z,1009.76
2018-07-30T07:04:56.123Z,1009.74
2018-07-30T07:06:49.087Z,1009.83
2018-07-30T07:07:49.091Z,1009.84
2018-07-30T07:09:42.038Z,1009.84
2018-07-30T07:10:42.057Z,1010.13
2018-07-30T07:12:35.027Z,1009.94
2018-07-30T07:13:35.027Z,1010.06
2018-07-30T07:15:27.986Z,1010.09
2018-07-30T07:16:28.030Z,1010.09
2018-07-30T07:18:20.930Z,1010.08
2018-07-30T07:19:21.039Z,1010.05
2018-07-30T07:21:13.939Z,1010.10
2018-07-30T07:22:13.924Z,1010.12
2018-07-30T07:24:06.866Z,1010.11
2018-07-30T07:25:06.891Z,1010.07
2018-07-30T07:26:59.921Z,1010.00
2018-07-30T07:27:59.898Z,1009.97
2018-07-30T07:29:52.834Z,1010.02
2018-07-30T07:30:52.824Z,1009.94
2018-07-30T07:32:45.769Z,1009.90
2018-07-30T07:33:45.794Z,1010.06
2018-07-30T07:35:38.764Z,1010.11
2018-07-30T07:36:38.761Z,1010.15
2018-07-30T07:38:31.723Z,1010.13
2018-07-30T07:39:31.742Z,1010.17
2018-07-30T07:41:24.710Z,1010.13
2018-07-30T07:42:24.718Z,1010.15
2018-07-30T07:44:17.657Z,1010.17
2018-07-30T07:45:17.683Z,1010.19
2018-07-30T07:47:10.646Z,1010.13
2018-07-30T07:48:10.651Z,1010.02
2018-07-30T07:50:03.657Z,1010.14
2018-07-30T07:51:03.839Z,1010.15
2018-07-30T07:52:56.604Z,1010.22
2018-07-30T07:53:56.603Z,1010.18
2018-07-30T07:55:49.577Z,1010.16
2018-07-30T07:56:49.581Z,1010.14
2018-07-30T07:58:42.542Z,1010.14
2018-07-30T07:59:42.564Z,1010.04
2018-07-30T08:01:35.529Z,1010.06
2018-07-30T08:02:35.538Z,1010.07
2018-07-30T08:04:28.484Z,1010.10
2018-07-30T08:05:28.513Z,1010.09
2018-07-30T08:07:21.483Z,1010.02
2018-07-30T08:08:21.491Z,1010.03
2018-07-30T08:10:14.434Z,1010.03
2018-07-30T08:11:14.461Z,1010.06
2018-07-30T08:13:07.430Z,1010.03
2018-07-30T08:14:07.435Z,1010.07
2018-07-30T08:16:00.406Z,1010.02
2018-07-30T08:17:00.410Z,1010.10
2018-07-30T08:18:53.356Z,1010.06
2018-07-30T08:19:53.382Z,1010.04
2018-07-30T08:21:46.348Z,1009.98
2018-07-30T08:22:46.354Z,1009.93
2018-07-30T08:24:39.297Z,1009.89
2018-07-30T08:25:39.325Z,1009.84
2018-07-30T08:27:32.289Z,1009.92
2018-07-30T08:28:32.290Z,1009.95
2018-07-30T08:30:25.266Z,1009.92
2018-07-30T08:31:25.268Z,1009.85
2018-07-30T08:33:18.216Z,1009.83
2018-07-30T08:34:18.233Z,1009.86
2018-07-30T08:36:11.215Z,1009.91
2018-07-30T08:37:11.220Z,1009.91
2018-07-30T08:39:04.162Z,1009.92
2018-07-30T08:40:04.187Z,1009.89
2018-07-30T08:41:57.154Z,1009.86
2018-07-30T08:42:57.154Z,1009.88
2018-07-30T08:44:50.102Z,1009.86
2018-07-30T08:45:50.123Z,1009.88
2018-07-30T08:47:43.087Z,1009.87
2018-07-30T08:48:43.104Z,1009.86
2018-07-30T08:50:36.036Z,1009.89
2018-07-30T08:51:36.057Z,1009.87
2018-07-30T08:53:29.027Z,1009.90
2018-07-30T08:54:29.027Z,1009.91
2018-07-30T08:56:21.991Z,1009.91
2018-07-30T08:57:21.990Z,1009.87
2018-07-30T08:59:14.936Z,1009.89
2018-07-30T09:00:14.960Z,1009.92
2018-07-30T09:02:07.920Z,1009.96
2018-07-30T09:03:07.923Z,1009.93
2018-07-30T09:05:00.869Z,1009.96
2018-07-30T09:06:00.888Z,1009.95
2018-07-30T09:07:53.860Z,1009.96
2018-07-30T09:08:53.861Z,1009.97
2018-07-30T09:10:46.805Z,1010.00
2018-07-30T09:11:46.825Z,1010.02
2018-07-30T09:13:39.792Z,1010.01
2018-07-30T09:14:39.797Z,1009.99
2018-07-30T09:16:32.757Z,1010.11
2018-07-30T09:17:32.759Z,1010.05
2018-07-30T09:19:25.703Z,1010.03
2018-07-30T09:20:25.728Z,1010.06
2018-07-30T09:22:18.687Z,1010.03
2018-07-30T09:23:18.692Z,1010.03
2018-07-30T09:25:11.632Z,1010.02
2018-07-30T09:26:11.652Z,1010.04
2018-07-30T09:28:04.617Z,1010.03
2018-07-30T09:29:04.617Z,1009.95
2018-07-30T09:30:57.564Z,1010.03
2018-07-30T09:31:57.585Z,1010.03
2018-07-30T09:33:50.548Z,1009.97
2018-07-30T09:34:50.550Z,1010.01
2018-07-30T09:36:43.519Z,1009.96
2018-07-30T09:37:43.519Z,1009.98
2018-07-30T09:39:36.477Z,1009.99
2018-07-30T09:40:36.483Z,1009.95
2018-07-30T09:42:29.452Z,1009.92
2018-07-30T09:43:29.454Z,1009.94
2018-07-30T09:45:22.405Z,1009.93
2018-07-30T09:46:22.420Z,1009.99
2018-07-30T09:48:15.389Z,1010.01
2018-07-30T09:49:15.388Z,1009.97
2018-07-30T09:51:08.328Z,1009.86
2018-07-30T09:52:08.347Z,1009.88
2018-07-30T09:54:01.309Z,1009.85
2018-07-30T09:55:01.315Z,1009.88
2018-07-30T09:56:54.284Z,1009.89
2018-07-30T09:57:54.282Z,1009.86
2018-07-30T09:59:47.219Z,1009.84
2018-07-30T10:00:47.247Z,1009.90
2018-07-30T10:02:40.206Z,1009.80
2018-07-30T10:03:40.207Z,1009.78
2018-07-30T10:05:33.156Z,1009.78
2018-07-30T10:06:33.176Z,1009.73
2018-07-30T10:08:26.134Z,1009.69
2018-07-30T10:09:26.133Z,1009.69
2018-07-30T10:11:19.081Z,1009.70
2018-07-30T10:12:19.110Z,1009.65
2018-07-30T10:14:12.065Z,1009.68
2018-07-30T10:15:12.067Z,1009.71
2018-07-30T10:17:05.051Z,1009.68
2018-07-30T10:18:05.128Z,1009.65
2018-07-30T10:19:57.974Z,1009.68
2018-07-30T10:20:58.007Z,1009.66
2018-07-30T10:22:50.962Z,1009.61
2018-07-30T10:23:50.995Z,1009.61
2018-07-30T10:25:43.914Z,1009.58
2018-07-30T10:26:43.934Z,1009.57
2018-07-30T10:28:36.898Z,1009.57
2018-07-30T10:29:36.898Z,1009.53
2018-07-30T10:31:29.844Z,1009.55
2018-07-30T10:32:29.866Z,1009.53
2018-07-30T10:34:22.863Z,1009.45
2018-07-30T10:35:22.831Z,1009.53
2018-07-30T10:37:15.788Z,1009.47
2018-07-30T10:38:15.926Z,1009.48
2018-07-30T10:40:08.738Z,1009.55
2018-07-30T10:41:08.760Z,1009.53
2018-07-30T10:43:01.727Z,1009.48
2018-07-30T10:44:01.724Z,1009.51
2018-07-30T10:45:54.670Z,1009.52
2018-07-30T10:46:54.696Z,1009.48
2018-07-30T10:48:47.662Z,1009.45
2018-07-30T10:49:47.661Z,1009.43
2018-07-30T10:51:40.669Z,1009.40
2018-07-30T10:52:40.628Z,1009.42
2018-07-30T10:54:33.588Z,1009.43
2018-07-30T10:55:33.590Z,1009.43
2018-07-30T10:57:26.556Z,1009.40
2018-07-30T10:58:26.557Z,1009.41
2018-07-30T11:00:19.518Z,1009.41
2018-07-30T11:01:19.544Z,1009.45
2018-07-30T11:03:12.504Z,1009.45
2018-07-30T11:04:12.507Z,1009.42
2018-07-30T11:06:05.451Z,1009.46
2018-07-30T11:07:05.477Z,1009.46
2018-07-30T11:08:58.435Z,1009.35
2018-07-30T11:09:58.438Z,1009.39
2018-07-30T11:11:51.401Z,1009.44
2018-07-30T11:12:51.407Z,1009.40
2018-07-30T11:14:44.399Z,1009.42
2018-07-30T11:15:44.378Z,1009.44
2018-07-30T11:17:37.340Z,1009.40
2018-07-30T11:18:37.340Z,1009.32
2018-07-30T11:20:30.304Z,1009.38
2018-07-30T11:21:30.348Z,1009.40
2018-07-30T11:23:23.295Z,1009.42
2018-07-30T11:24:23.294Z,1009.36
2018-07-30T11:26:16.243Z,1009.36
2018-07-30T11:27:16.266Z,1009.33
2018-07-30T11:29:09.226Z,1009.34
2018-07-30T11:30:09.234Z,1009.29
2018-07-30T11:32:02.182Z,1009.30
2018-07-30T11:33:02.203Z,1009.27
2018-07-30T11:34:55.169Z,1009.29
2018-07-30T11:35:55.171Z,1009.30
2018-07-30T11:37:48.192Z,1009.36
2018-07-30T11:38:48.254Z,1009.34
2018-07-30T11:40:41.134Z,1009.40
2018-07-30T11:41:41.157Z,1009.39
2018-07-30T11:43:34.181Z,1009.35
2018-07-30T11:44:34.125Z,1009.28
2018-07-30T11:46:27.071Z,1009.39
2018-07-30T11:47:27.117Z,1009.34
2018-07-30T11:49:20.054Z,1009.32
2018-07-30T11:50:20.057Z,1009.34
2018-07-30T11:52:13.006Z,1009.28
2018-07-30T11:53:13.032Z,1009.25
2018-07-30T11:55:05.999Z,1009.24
2018-07-30T11:56:06.004Z,1009.18
2018-07-30T11:57:58.972Z,1009.21
2018-07-30T11:58:58.975Z,1009.25
2018-07-30T12:00:51.918Z,1009.21
2018-07-30T12:01:51.978Z,1009.25
2018-07-30T12:03:44.910Z,1009.20
2018-07-30T12:04:44.912Z,1009.21
2018-07-30T12:06:37.858Z,1009.20
2018-07-30T12:07:37.880Z,1009.21
2018-07-30T12:09:30.850Z,1009.23
2018-07-30T12:10:30.851Z,1009.19
2018-07-30T12:12:23.815Z,1009.16
2018-07-30T12:13:23.828Z,1009.14
2018-07-30T12:15:16.793Z,1009.15
2018-07-30T12:16:16.787Z,1009.12
2018-07-30T12:18:09.821Z,1009.15
2018-07-30T12:19:09.815Z,1009.14
2018-07-30T12:21:02.854Z,1009.05
2018-07-30T12:22:02.874Z,1009.07
2018-07-30T12:23:55.931Z,1009.05
2018-07-30T12:24:55.968Z,1009.09
2018-07-30T12:26:48.975Z,1009.06
2018-07-30T12:27:48.995Z,1009.05
2018-07-30T12:29:42.046Z,1009.03
2018-07-30T12:30:42.148Z,1009.02
2018-07-30T12:32:34.990Z,1008.97
2018-07-30T12:33:35.016Z,1008.98
2018-07-30T12:35:27.981Z,1009.07
2018-07-30T12:36:27.993Z,1009.07
2018-07-30T12:38:20.947Z,1009.05
2018-07-30T12:39:20.951Z,1009.04
2018-07-30T12:41:13.893Z,1009.04
2018-07-30T12:42:13.917Z,1008.96
2018-07-30T12:44:06.893Z,1008.96
2018-07-30T12:45:06.896Z,1008.97
2018-07-30T12:46:59.850Z,1008.95
2018-07-30T12:47:59.875Z,1008.99
2018-07-30T12:49:52.841Z,1008.91
2018-07-30T12:50:52.913Z,1008.95
2018-07-30T12:52:45.789Z,1008.89
2018-07-30T12:53:45.816Z,1008.91
2018-07-30T12:55:38.784Z,1008.85
2018-07-30T12:56:38.792Z,1008.82
2018-07-30T12:58:31.756Z,1008.80
2018-07-30T12:59:31.763Z,1008.79
2018-07-30T13:01:24.706Z,1008.73
2018-07-30T13:02:24.730Z,1008.76
2018-07-30T13:04:17.694Z,1008.76
2018-07-30T13:05:17.698Z,1008.77
2018-07-30T13:07:10.645Z,1008.75
2018-07-30T13:08:10.691Z,1008.75
2018-07-30T13:10:03.636Z,1008.81
2018-07-30T13:11:03.646Z,1008.79
2018-07-30T13:12:56.583Z,1008.79
2018-07-30T13:13:56.610Z,1008.76
2018-07-30T13:15:49.573Z,1008.81
2018-07-30T13:16:49.581Z,1008.81
2018-07-30T13:18:42.550Z,1008.86
2018-07-30T13:19:42.555Z,1008.87
2018-07-30T13:21:35.496Z,1008.77
2018-07-30T13:22:35.520Z,1008.79
2018-07-30T13:24:28.503Z,1008.82
2018-07-30T13:25:28.495Z,1008.78
2018-07-30T13:27:21.437Z,1008.81
2018-07-30T13:28:21.460Z,1008.78
2018-07-30T13:30:14.425Z,1008.76
2018-07-30T13:31:14.428Z,1008.76
2018-07-30T13:33:07.374Z,1008.78
2018-07-30T13:34:07.392Z,1008.74
2018-07-30T13:36:00.367Z,1008.80
2018-07-30T13:37:00.364Z,1008.77
2018-07-30T13:38:53.341Z,1008.74
2018-07-30T13:39:53.334Z,1008.77
2018-07-30T13:41:46.292Z,1008.73
2018-07-30T13:42:46.316Z,1008.77
2018-07-30T13:44:39.350Z,1008.75
2018-07-30T13:45:39.285Z,1008.74
2018-07-30T13:47:32.227Z,1008.80
2018-07-30T13:48:32.253Z,1008.74
2018-07-30T13:50:25.216Z,1008.71
2018-07-30T13:51:25.223Z,1008.75
2018-07-30T13:53:18.168Z,1008.74
2018-07-30T13:54:18.227Z,1008.64
2018-07-30T13:56:11.163Z,1008.68
2018-07-30T13:57:11.162Z,1008.65
2018-07-30T13:59:04.126Z,1008.65
2018-07-30T14:00:04.129Z,1008.62
2018-07-30T14:01:57.080Z,1008.59
2018-07-30T14:02:57.107Z,1008.57
2018-07-30T14:04:50.073Z,1008.69
2018-07-30T14:05:50.077Z,1008.67
2018-07-30T14:07:43.018Z,1008.67
2018-07-30T14:08:43.045Z,1008.70
2018-07-30T14:10:36.016Z,1008.62
2018-07-30T14:11:36.023Z,1008.64
2018-07-30T14:13:28.967Z,1008.59
2018-07-30T14:14:28.987Z,1008.58
2018-07-30T14:16:21.978Z,1008.51
2018-07-30T14:17:22.000Z,1008.52
2018-07-30T14:19:14.948Z,1008.57
2018-07-30T14:20:15.009Z,1008.55
2018-07-30T14:22:07.901Z,1008.52
2018-07-30T14:23:07.925Z,1008.55
2018-07-30T14:25:00.895Z,1008.50
2018-07-30T14:26:00.898Z,1008.53
2018-07-30T14:27:53.843Z,1008.49
2018-07-30T14:28:53.868Z,1008.49
2018-07-30T14:30:46.852Z,1008.47
2018-07-30T14:31:46.851Z,1008.46
2018-07-30T14:33:39.787Z,1008.46
2018-07-30T14:34:39.807Z,1008.45
2018-07-30T14:36:32.846Z,1008.42
2018-07-30T14:37:32.778Z,1008.43
2018-07-30T14:39:25.743Z,1008.46
2018-07-30T14:40:25.750Z,1008.25
2018-07-30T14:42:18.698Z,1008.33
2018-07-30T14:43:18.723Z,1008.44
2018-07-30T14:45:11.692Z,1008.44
2018-07-30T14:46:11.696Z,1008.43
2018-07-30T14:48:04.640Z,1008.48
2018-07-30T14:49:04.666Z,1008.44
2018-07-30T14:50:57.635Z,1008.43
2018-07-30T14:51:57.634Z,1008.46
2018-07-30T14:53:50.588Z,1008.54
2018-07-30T14:54:50.609Z,1008.49
2018-07-30T14:56:43.573Z,1008.40
2018-07-30T14:57:43.580Z,1008.40
2018-07-30T14:59:36.593Z,1008.35
2018-07-30T15:00:36.553Z,1008.32
2018-07-30T15:02:29.534Z,1008.28
2018-07-30T15:03:29.525Z,1008.28
2018-07-30T15:05:22.494Z,1008.27
2018-07-30T15:06:22.505Z,1008.22
2018-07-30T15:08:15.443Z,1008.24
2018-07-30T15:09:15.466Z,1008.22
2018-07-30T15:11:08.430Z,1008.28
2018-07-30T15:12:08.469Z,1008.27
2018-07-30T15:14:01.380Z,1008.30
2018-07-30T15:15:01.403Z,1008.26
2018-07-30T15:16:54.368Z,1008.26
2018-07-30T15:17:54.374Z,1008.27
2018-07-30T15:19:47.335Z,1008.30
2018-07-30T15:20:47.339Z,1008.27
2018-07-30T15:22:40.283Z,1008.29
2018-07-30T15:23:40.309Z,1008.26
2018-07-30T15:25:33.276Z,1008.33
2018-07-30T15:26:33.280Z,1008.26
2018-07-30T15:28:26.230Z,1008.31
2018-07-30T15:29:26.251Z,1008.33
2018-07-30T15:31:19.223Z,1008.29
2018-07-30T15:32:19.226Z,1008.28
2018-07-30T15:34:12.182Z,1008.25
2018-07-30T15:35:12.205Z,1008.22
2018-07-30T15:37:05.166Z,1008.29
2018-07-30T15:38:05.172Z,1008.26
2018-07-30T15:39:58.136Z,1008.26
2018-07-30T15:40:58.134Z,1008.23
2018-07-30T15:42:51.083Z,1008.25
2018-07-30T15:43:51.107Z,1008.22
2018-07-30T15:45:44.072Z,1008.22
2018-07-30T15:46:44.112Z,1008.20
2018-07-30T15:48:37.025Z,1008.20
2018-07-30T15:49:37.046Z,1008.19
2018-07-30T15:51:30.014Z,1008.18
2018-07-30T15:52:30.018Z,1008.16
2018-07-30T15:54:22.959Z,1008.14
2018-07-30T15:55:22.985Z,1008.11
2018-07-30T15:57:15.952Z,1008.12
2018-07-30T15:58:15.954Z,1008.09
2018-07-30T16:00:08.918Z,1008.06
2018-07-30T16:01:08.925Z,1008.11
2018-07-30T16:03:01.884Z,1008.13
2018-07-30T16:04:01.903Z,1008.13
2018-07-30T16:05:54.891Z,1008.15
2018-07-30T16:06:54.869Z,1008.09
2018-07-30T16:08:47.815Z,1008.07
2018-07-30T16:09:47.841Z,1008.09
2018-07-30T16:11:40.806Z,1008.05
2018-07-30T16:12:40.813Z,1008.05
2018-07-30T16:14:33.757Z,1008.05
2018-07-30T16:15:33.782Z,1008.00
2018-07-30T16:17:26.743Z,1007.96
2018-07-30T16:18:26.748Z,1007.99
2018-07-30T16:20:19.711Z,1008.03
2018-07-30T16:21:19.715Z,1008.03
2018-07-30T16:23:12.711Z,1008.11
2018-07-30T16:24:12.696Z,1008.15
2018-07-30T16:26:05.695Z,1008.11
2018-07-30T16:27:05.660Z,1008.10
2018-07-30T16:28:58.606Z,1008.11
2018-07-30T16:29:58.626Z,1008.16
2018-07-30T16:31:51.601Z,1008.17
2018-07-30T16:32:51.604Z,1008.12
2018-07-30T16:34:44.546Z,1008.12
2018-07-30T16:35:44.571Z,1008.10
2018-07-30T16:37:37.530Z,1008.10
2018-07-30T16:38:37.538Z,1008.08
2018-07-30T16:40:30.506Z,1008.06
2018-07-30T16:41:30.519Z,1008.08
2018-07-30T16:43:23.449Z,1008.11
2018-07-30T16:44:23.472Z,1008.10
2018-07-30T16:46:16.439Z,1008.07
2018-07-30T16:47:16.465Z,1008.12
2018-07-30T16:49:09.382Z,1008.07
2018-07-30T16:50:09.403Z,1008.12
2018-07-30T16:52:02.369Z,1008.09
2018-07-30T16:53:02.368Z,1008.10
2018-07-30T16:54:55.336Z,1008.09
2018-07-30T16:55:55.346Z,1008.11
2018-07-30T16:57:48.316Z,1008.10
2018-07-30T16:58:48.359Z,1008.08
2018-07-30T17:00:41.278Z,1008.10
2018-07-30T17:01:41.279Z,1008.10
2018-07-30T17:03:34.222Z,1008.07
2018-07-30T17:04:34.263Z,1008.01
2018-07-30T17:06:27.213Z,1008.07
2018-07-30T17:07:27.215Z,1008.03
2018-07-30T17:09:20.172Z,1008.01
2018-07-30T17:10:20.178Z,1008.06
2018-07-30T17:12:13.141Z,1008.04
2018-07-30T17:13:13.141Z,1008.09
2018-07-30T17:15:06.089Z,1008.16
2018-07-30T17:16:06.108Z,1008.08
2018-07-30T17:17:59.071Z,1008.12
2018-07-30T17:18:59.074Z,1008.07
2018-07-30T17:20:52.037Z,1008.16
2018-07-30T17:21:52.035Z,1008.14
2018-07-30T17:23:44.990Z,1008.08
2018-07-30T17:24:45.019Z,1008.13
2018-07-30T17:26:37.972Z,1008.06
2018-07-30T17:27:37.973Z,1008.11
2018-07-30T17:29:30.914Z,1008.09
2018-07-30T17:30:30.937Z,1008.08
2018-07-30T17:32:23.895Z,1008.03
2018-07-30T17:33:23.896Z,1008.06
2018-07-30T17:35:16.843Z,1008.03
2018-07-30T17:36:16.862Z,1008.07
2018-07-30T17:38:09.876Z,1008.05
2018-07-30T17:39:09.852Z,1008.07
2018-07-30T17:41:02.811Z,1008.09
2018-07-30T17:42:02.884Z,1008.08
2018-07-30T17:43:55.753Z,1008.07
2018-07-30T17:44:55.776Z,1008.09
2018-07-30T17:46:48.737Z,1008.11
2018-07-30T17:47:48.742Z,1008.10
2018-07-30T17:49:41.681Z,1008.15
2018-07-30T17:50:41.701Z,1008.14
2018-07-30T17:52:34.661Z,1008.13
2018-07-30T17:53:34.665Z,1008.18
2018-07-30T17:55:27.605Z,1008.08